createdAt,value
2023-03-30T00:00:59.133Z,99594.69
2023-03-30T00:03:27.725Z,99598.38
2023-03-30T00:06:01.160Z,99596.78
2023-03-30T00:08:28.871Z,99597.34
2023-03-30T00:11:11.877Z,99591.91
2023-03-30T00:13:40.146Z,99593.31
2023-03-30T00:16:10.190Z,99591.41
2023-03-30T00:18:39.387Z,99585.06
2023-03-30T00:21:10.041Z,99583.50
2023-03-30T00:23:38.867Z,99578.94
2023-03-30T00:26:08.104Z,99582.69
2023-03-30T00:28:35.502Z,99584.50
2023-03-30T00:31:03.119Z,99579.53
2023-03-30T00:33:44.769Z,99578.38
2023-03-30T00:36:15.749Z,99573.41
2023-03-30T00:38:44.106Z,99571.78
2023-03-30T00:41:12.310Z,99572.44
2023-03-30T00:44:01.091Z,99575.91
2023-03-30T00:46:31.289Z,99571.00
2023-03-30T00:49:04.114Z,99566.87
2023-03-30T00:51:35.906Z,99566.97
2023-03-30T00:54:16.111Z,99564.94
2023-03-30T00:56:44.024Z,99553.88
2023-03-30T00:59:11.852Z,99559.31
2023-03-30T01:01:40.631Z,99556.06
2023-03-30T01:04:10.101Z,99551.06
2023-03-30T01:06:40.179Z,99548.28
2023-03-30T01:09:08.585Z,99542.47
2023-03-30T01:11:36.524Z,99535.00
2023-03-30T01:14:06.482Z,99531.16
2023-03-30T01:16:55.902Z,99520.87
2023-03-30T01:19:49.420Z,99528.47
2023-03-30T01:22:37.036Z,99524.22
2023-03-30T01:25:38.717Z,99519.59
2023-03-30T01:28:09.803Z,99514.56
2023-03-30T01:30:53.513Z,99510.69
2023-03-30T01:33:39.199Z,99499.06
2023-03-30T01:36:26.866Z,99510.03
2023-03-30T01:39:23.651Z,99505.31
2023-03-30T01:41:55.542Z,99506.84
2023-03-30T01:45:01.849Z,99498.87
2023-03-30T01:47:51.587Z,99504.94
2023-03-30T01:50:26.643Z,99498.28
2023-03-30T01:53:23.588Z,99506.28
2023-03-30T01:55:56.210Z,99501.59
2023-03-30T01:58:34.583Z,99494.81
2023-03-30T02:01:03.376Z,99503.97
2023-03-30T02:03:33.220Z,99496.31
2023-03-30T02:06:11.904Z,99488.09
2023-03-30T02:08:40.330Z,99493.16
2023-03-30T02:11:07.983Z,99490.97
2023-03-30T02:13:37.033Z,99487.84
2023-03-30T02:16:15.697Z,99484.09
2023-03-30T02:18:45.094Z,99483.28
2023-03-30T02:21:13.105Z,99471.88
2023-03-30T02:23:42.832Z,99465.41
2023-03-30T02:26:11.297Z,99468.94
2023-03-30T02:28:39.204Z,99461.47
2023-03-30T02:31:13.202Z,99465.88
2023-03-30T02:33:56.814Z,99474.94
2023-03-30T02:37:15.357Z,99475.03
2023-03-30T02:40:13.370Z,99463.34
2023-03-30T02:42:49.194Z,99483.66
2023-03-30T02:45:24.923Z,99476.31
2023-03-30T02:48:03.271Z,99471.41
2023-03-30T02:50:35.129Z,99460.97
2023-03-30T02:53:24.841Z,99468.19
2023-03-30T02:56:00.590Z,99471.25
2023-03-30T02:58:42.989Z,99459.59
2023-03-30T03:01:36.392Z,99472.09
2023-03-30T03:04:05.425Z,99476.53
2023-03-30T03:06:34.371Z,99479.38
2023-03-30T03:09:01.803Z,99481.28
2023-03-30T03:11:29.650Z,99473.88
2023-03-30T03:13:57.330Z,99464.53
2023-03-30T03:16:26.727Z,99472.78
2023-03-30T03:18:55.243Z,99480.75
2023-03-30T03:21:23.044Z,99474.28
2023-03-30T03:23:51.128Z,99491.44
2023-03-30T03:26:20.017Z,99479.66
2023-03-30T03:28:47.734Z,99470.28
2023-03-30T03:31:16.240Z,99486.12
2023-03-30T03:33:45.301Z,99482.56
2023-03-30T03:36:13.435Z,99489.00
2023-03-30T03:38:41.729Z,99495.09
2023-03-30T03:41:09.453Z,99488.34
2023-03-30T03:43:38.053Z,99498.72
2023-03-30T03:46:05.751Z,99496.41
2023-03-30T03:48:33.333Z,99485.16
2023-03-30T03:51:01.435Z,99478.19
2023-03-30T03:53:31.210Z,99474.59
2023-03-30T03:55:59.085Z,99469.53
2023-03-30T03:58:27.570Z,99473.88
2023-03-30T04:00:59.364Z,99472.28
2023-03-30T04:03:27.505Z,99464.62
2023-03-30T04:05:57.099Z,99447.53
2023-03-30T04:08:25.764Z,99446.53
2023-03-30T04:10:53.996Z,99446.72
2023-03-30T04:13:21.961Z,99446.31
2023-03-30T04:15:49.703Z,99454.53
2023-03-30T04:18:17.891Z,99447.66
2023-03-30T04:20:46.325Z,99436.78
2023-03-30T04:23:16.488Z,99441.41
2023-03-30T04:25:45.760Z,99447.41
2023-03-30T04:28:14.547Z,99457.22
2023-03-30T04:30:45.701Z,99459.59
2023-03-30T04:33:15.593Z,99456.94
2023-03-30T04:35:43.851Z,99454.56
2023-03-30T04:38:12.324Z,99453.91
2023-03-30T04:40:40.483Z,99455.38
2023-03-30T04:43:09.881Z,99443.91
2023-03-30T04:45:37.921Z,99448.09
2023-03-30T04:48:05.933Z,99441.84
2023-03-30T04:50:36.517Z,99432.66
2023-03-30T04:53:06.520Z,99439.66
2023-03-30T04:55:36.665Z,99431.16
2023-03-30T04:58:04.159Z,99431.84
2023-03-30T05:00:33.528Z,99429.81
2023-03-30T05:03:01.785Z,99432.41
2023-03-30T05:05:29.524Z,99423.81
2023-03-30T05:07:58.730Z,99429.31
2023-03-30T05:10:26.524Z,99432.81
2023-03-30T05:12:55.765Z,99432.78
2023-03-30T05:15:24.765Z,99428.59
2023-03-30T05:17:52.419Z,99433.47
2023-03-30T05:20:20.314Z,99426.06
2023-03-30T05:22:50.798Z,99428.72
2023-03-30T05:25:18.491Z,99433.75
2023-03-30T05:27:46.206Z,99436.22
2023-03-30T05:30:14.990Z,99433.97
2023-03-30T05:32:42.978Z,99436.00
2023-03-30T05:35:12.079Z,99430.97
2023-03-30T05:37:40.675Z,99418.41
2023-03-30T05:40:12.597Z,99430.41
2023-03-30T05:42:40.563Z,99420.50
2023-03-30T05:45:09.433Z,99421.28
2023-03-30T05:47:38.432Z,99418.97
2023-03-30T05:50:08.110Z,99422.94
2023-03-30T05:52:38.474Z,99422.78
2023-03-30T05:55:06.946Z,99442.88
2023-03-30T05:57:36.729Z,99441.31
2023-03-30T06:00:07.135Z,99440.28
2023-03-30T06:02:40.350Z,99434.81
2023-03-30T06:05:09.797Z,99435.34
2023-03-30T06:07:37.580Z,99428.31
2023-03-30T06:10:08.249Z,99429.13
2023-03-30T06:12:36.083Z,99426.03
2023-03-30T06:15:03.918Z,99414.50
2023-03-30T06:17:31.862Z,99411.72
2023-03-30T06:20:08.430Z,99410.22
2023-03-30T06:22:36.342Z,99417.88
2023-03-30T06:25:04.685Z,99409.00
2023-03-30T06:27:33.021Z,99403.62
2023-03-30T06:30:00.618Z,99401.91
2023-03-30T06:32:28.375Z,99402.03
2023-03-30T06:34:57.805Z,99395.25
2023-03-30T06:37:25.597Z,99396.84
2023-03-30T06:39:53.618Z,99396.94
2023-03-30T06:42:21.137Z,99395.03
2023-03-30T06:44:50.627Z,99390.47
2023-03-30T06:47:20.036Z,99396.03
2023-03-30T06:49:48.430Z,99386.94
2023-03-30T06:52:17.454Z,99399.13
2023-03-30T06:54:45.995Z,99398.66
2023-03-30T06:57:13.516Z,99398.72
2023-03-30T06:59:41.342Z,99399.37
2023-03-30T07:02:15.287Z,99407.84
2023-03-30T07:04:46.929Z,99411.16
2023-03-30T07:07:16.332Z,99417.56
2023-03-30T07:09:44.123Z,99424.34
2023-03-30T07:12:11.910Z,99424.88
2023-03-30T07:14:40.529Z,99419.91
2023-03-30T07:17:08.615Z,99412.88
2023-03-30T07:19:36.846Z,99419.31
2023-03-30T07:22:04.709Z,99412.31
2023-03-30T07:24:33.751Z,99417.91
2023-03-30T07:27:02.795Z,99414.37
2023-03-30T07:29:30.827Z,99417.78
2023-03-30T08:28:05.650Z,99381.50
2023-03-30T08:30:33.416Z,99392.19
2023-03-30T08:33:01.194Z,99391.72
2023-03-30T08:35:28.997Z,99383.66
2023-03-30T08:37:56.965Z,99378.56
2023-03-30T08:40:24.454Z,99386.56
2023-03-30T08:43:00.874Z,99394.47
2023-03-30T08:45:36.925Z,99393.84
2023-03-30T08:48:12.313Z,99391.25
2023-03-30T08:50:40.024Z,99381.28
2023-03-30T08:53:08.062Z,99384.41
2023-03-30T08:55:51.862Z,99388.53
2023-03-30T08:58:40.012Z,99388.53
2023-03-30T09:01:23.629Z,99385.25
2023-03-30T09:04:14.146Z,99366.56
2023-03-30T09:07:05.440Z,99372.69
2023-03-30T09:09:39.016Z,99372.88
2023-03-30T09:12:12.367Z,99373.75
2023-03-30T09:14:46.641Z,99366.38
2023-03-30T09:17:28.687Z,99374.88
2023-03-30T09:20:00.926Z,99370.63
2023-03-30T09:22:38.121Z,99363.63
2023-03-30T09:25:21.580Z,99358.47
2023-03-30T09:27:56.320Z,99361.09
2023-03-30T09:30:47.625Z,99352.41
2023-03-30T09:33:14.941Z,99349.25
2023-03-30T09:35:44.784Z,99344.03
2023-03-30T09:38:13.449Z,99333.81
2023-03-30T09:41:07.581Z,99337.34
2023-03-30T09:43:44.285Z,99327.50
2023-03-30T09:46:13.826Z,99330.63
2023-03-30T09:48:51.436Z,99323.69
2023-03-30T09:51:21.493Z,99317.56
2023-03-30T09:53:52.102Z,99318.78
2023-03-30T09:56:22.431Z,99309.16
2023-03-30T09:58:50.512Z,99313.69
2023-03-30T10:01:20.182Z,99307.50
2023-03-30T10:04:23.736Z,99302.34
2023-03-30T10:06:51.471Z,99306.50
2023-03-30T10:09:22.440Z,99297.84
2023-03-30T10:11:51.949Z,99300.69
2023-03-30T10:14:29.720Z,99293.97
2023-03-30T10:16:58.957Z,99302.53
2023-03-30T10:19:26.962Z,99304.97
2023-03-30T10:21:58.920Z,99305.94
2023-03-30T10:24:29.562Z,99297.44
2023-03-30T10:27:17.163Z,99287.19
2023-03-30T10:29:46.803Z,99284.56
2023-03-30T10:32:20.013Z,99269.78
2023-03-30T10:34:52.874Z,99273.25
2023-03-30T10:37:41.219Z,99266.41
2023-03-30T10:40:17.532Z,99255.75
2023-03-30T10:42:47.228Z,99265.28
2023-03-30T10:45:19.355Z,99257.50
2023-03-30T10:48:09.051Z,99249.75
2023-03-30T10:50:47.263Z,99244.66
2023-03-30T10:53:33.041Z,99249.06
2023-03-30T10:56:13.931Z,99252.53
2023-03-30T10:59:00.656Z,99239.47
2023-03-30T11:01:42.699Z,99233.41
2023-03-30T11:04:47.343Z,99224.66
2023-03-30T11:07:38.718Z,99232.50
2023-03-30T11:10:14.736Z,99229.06
2023-03-30T11:12:46.948Z,99227.38
2023-03-30T11:15:41.531Z,99236.03
2023-03-30T11:18:09.305Z,99233.41
2023-03-30T11:20:47.847Z,99235.12
2023-03-30T11:23:39.051Z,99223.87
2023-03-30T11:26:18.078Z,99229.09
2023-03-30T11:29:22.880Z,99217.78
2023-03-30T11:32:15.504Z,99219.50
2023-03-30T11:34:55.728Z,99202.13
2023-03-30T11:37:32.437Z,99205.63
2023-03-30T11:40:11.873Z,99202.13
2023-03-30T11:42:39.301Z,99201.13
2023-03-30T11:45:18.715Z,99203.69
2023-03-30T11:48:04.409Z,99208.72
2023-03-30T11:50:38.981Z,99210.66
2023-03-30T11:53:33.400Z,99194.00
2023-03-30T11:56:14.214Z,99180.69
2023-03-30T11:58:47.052Z,99179.88
2023-03-30T12:01:42.122Z,99180.84
2023-03-30T12:04:11.036Z,99165.88
2023-03-30T12:06:40.936Z,99177.16
2023-03-30T12:09:25.723Z,99169.31
2023-03-30T12:12:11.957Z,99167.84
2023-03-30T12:15:04.490Z,99160.81
2023-03-30T12:18:00.054Z,99156.50
2023-03-30T12:20:30.544Z,99154.75
2023-03-30T12:23:19.813Z,99133.84
2023-03-30T12:25:47.104Z,99122.59
2023-03-30T12:28:15.743Z,99122.31
2023-03-30T12:30:57.585Z,99113.56
2023-03-30T12:33:50.107Z,99121.50
2023-03-30T12:36:38.156Z,99114.19
2023-03-30T12:39:12.920Z,99115.84
2023-03-30T12:41:50.507Z,99110.75
2023-03-30T12:44:55.421Z,99103.66
2023-03-30T12:47:33.554Z,99098.72
2023-03-30T12:50:13.470Z,99104.13
2023-03-30T12:53:13.443Z,99092.34
2023-03-30T12:55:52.237Z,99089.47
2023-03-30T12:58:39.414Z,99091.31
2023-03-30T13:01:38.248Z,99082.44
2023-03-30T13:04:09.354Z,99079.19
2023-03-30T13:06:40.574Z,99073.97
2023-03-30T13:09:08.056Z,99065.28
2023-03-30T13:11:53.953Z,99064.75
2023-03-30T13:14:45.279Z,99065.38
2023-03-30T13:17:19.714Z,99069.44
2023-03-30T13:23:05.746Z,99059.25
2023-03-30T13:26:00.556Z,99060.44
2023-03-30T13:28:55.006Z,99050.03
2023-03-30T13:31:55.048Z,99046.97
2023-03-30T13:34:48.926Z,99052.72
2023-03-30T13:37:44.796Z,99049.69
2023-03-30T13:40:27.344Z,99055.84
2023-03-30T13:43:29.354Z,99052.34
2023-03-30T13:46:13.861Z,99048.84
2023-03-30T13:48:55.213Z,99048.84
2023-03-30T13:51:25.750Z,99033.94
2023-03-30T13:53:58.085Z,99032.25
2023-03-30T13:56:27.344Z,99037.84
2023-03-30T13:59:33.659Z,99020.03
2023-03-30T14:02:01.952Z,99011.22
2023-03-30T14:04:34.610Z,99005.88
2023-03-30T14:07:16.537Z,99000.28
2023-03-30T14:10:05.399Z,99006.84
2023-03-30T14:12:34.110Z,99003.41
2023-03-30T14:15:02.100Z,99005.88
2023-03-30T14:17:29.614Z,98998.44
2023-03-30T14:20:16.932Z,98999.28
2023-03-30T14:22:46.129Z,98983.75
2023-03-30T14:25:25.661Z,98983.88
2023-03-30T14:27:53.981Z,98969.94
2023-03-30T14:30:29.411Z,98967.44
2023-03-30T14:33:11.465Z,98946.44
2023-03-30T14:35:45.806Z,98942.00
2023-03-30T14:38:17.568Z,98938.62
2023-03-30T14:40:45.655Z,98929.22
2023-03-30T14:43:15.153Z,98919.59
2023-03-30T14:45:43.035Z,98915.75
2023-03-30T14:48:19.581Z,98913.56
2023-03-30T14:50:47.289Z,98903.09
2023-03-30T14:53:14.929Z,98898.16
2023-03-30T14:55:42.881Z,98893.84
2023-03-30T14:58:13.855Z,98897.38
2023-03-30T15:00:42.017Z,98904.53
2023-03-30T15:03:19.682Z,98893.06
2023-03-30T15:05:54.066Z,98879.00
2023-03-30T15:08:31.829Z,98894.94
2023-03-30T15:11:23.226Z,98886.22
2023-03-30T15:13:53.172Z,98878.47
2023-03-30T15:16:28.716Z,98869.50
2023-03-30T15:18:59.226Z,98867.31
2023-03-30T15:21:29.207Z,98858.88
2023-03-30T15:23:58.636Z,98856.44
2023-03-30T15:26:27.143Z,98853.03
2023-03-30T15:28:57.323Z,98851.28
2023-03-30T15:31:27.556Z,98861.94
2023-03-30T15:33:57.706Z,98866.19
2023-03-30T15:36:35.425Z,98877.44
2023-03-30T15:39:17.591Z,98883.53
2023-03-30T15:41:50.484Z,98894.09
2023-03-30T15:44:20.013Z,98907.78
2023-03-30T15:46:49.830Z,98917.53
2023-03-30T15:49:23.391Z,98923.47
2023-03-30T15:51:52.770Z,98933.09
2023-03-30T15:54:24.791Z,98926.87
2023-03-30T15:57:03.983Z,98922.25
2023-03-30T15:59:35.220Z,98910.09
2023-03-30T16:02:15.395Z,98904.88
2023-03-30T16:05:00.777Z,98906.69
2023-03-30T16:07:29.412Z,98910.31
2023-03-30T16:09:57.129Z,98906.91
2023-03-30T16:12:27.135Z,98893.88
2023-03-30T16:14:55.155Z,98888.59
2023-03-30T16:17:23.036Z,98876.31
2023-03-30T16:19:50.534Z,98878.25
2023-03-30T16:22:32.039Z,98871.19
2023-03-30T16:25:15.902Z,98861.00
2023-03-30T16:28:14.106Z,98859.31
2023-03-30T16:30:47.340Z,98876.47
2023-03-30T16:33:15.187Z,98878.25
2023-03-30T16:35:42.715Z,98883.63
2023-03-30T16:38:14.378Z,98876.44
2023-03-30T16:40:44.054Z,98872.09
2023-03-30T16:43:12.720Z,98870.28
2023-03-30T16:45:40.315Z,98874.28
2023-03-30T16:48:08.241Z,98877.69
2023-03-30T16:50:46.206Z,98882.91
2023-03-30T16:53:14.050Z,98884.69
2023-03-30T16:55:41.838Z,98892.66
2023-03-30T16:58:13.797Z,98888.59
2023-03-30T17:00:44.985Z,98889.53
2023-03-30T17:03:13.096Z,98882.72
2023-03-30T17:05:40.902Z,98887.63
2023-03-30T17:08:18.951Z,98878.09
2023-03-30T17:10:47.489Z,98873.75
2023-03-30T17:13:15.819Z,98884.31
2023-03-30T17:15:43.990Z,98876.41
2023-03-30T17:18:17.750Z,98882.63
2023-03-30T17:20:54.568Z,98878.25
2023-03-30T17:23:28.747Z,98871.38
2023-03-30T17:25:59.041Z,98873.19
2023-03-30T17:28:32.654Z,98866.97
2023-03-30T17:31:03.549Z,98860.75
2023-03-30T17:33:36.212Z,98862.72
2023-03-30T17:36:26.456Z,98853.94
2023-03-30T17:38:54.822Z,98849.53
2023-03-30T17:41:24.519Z,98850.63
2023-03-30T17:43:52.900Z,98850.56
2023-03-30T17:46:21.576Z,98848.03
2023-03-30T17:48:52.061Z,98838.34
2023-03-30T17:51:23.592Z,98836.63
2023-03-30T17:53:51.851Z,98842.06
2023-03-30T17:56:20.034Z,98837.75
2023-03-30T17:58:52.834Z,98848.25
2023-03-30T18:01:24.563Z,98844.88
2023-03-30T18:03:53.940Z,98856.38
2023-03-30T18:06:22.541Z,98868.56
2023-03-30T18:08:50.638Z,98872.91
2023-03-30T18:11:19.735Z,98865.87
2023-03-30T18:13:48.359Z,98859.91
2023-03-30T18:16:18.388Z,98864.13
2023-03-30T18:18:57.234Z,98865.75
2023-03-30T18:25:45.070Z,98895.44
2023-03-30T18:28:22.797Z,98943.22
2023-03-30T18:30:53.725Z,98944.97
2023-03-30T18:33:22.767Z,98939.84
2023-03-30T18:35:54.144Z,98938.09
2023-03-30T18:38:23.376Z,98927.63
2023-03-30T18:40:58.552Z,98924.88
2023-03-30T18:43:27.949Z,98929.28
2023-03-30T18:46:01.778Z,98920.47
2023-03-30T18:48:31.440Z,98914.59
2023-03-30T18:51:01.500Z,98906.72
2023-03-30T18:53:30.449Z,98912.06
2023-03-30T18:56:01.056Z,98911.22
2023-03-30T18:58:34.240Z,98890.28
2023-03-30T19:01:02.990Z,98879.84
2023-03-30T19:03:33.948Z,98859.03
2023-03-30T19:06:02.621Z,98846.78
2023-03-30T19:08:31.453Z,98838.12
2023-03-30T19:11:01.370Z,98833.66
2023-03-30T19:13:30.174Z,98818.16
2023-03-30T19:15:59.132Z,98851.03
2023-03-30T19:18:28.273Z,98849.53
2023-03-30T19:20:57.562Z,98847.75
2023-03-30T19:23:27.024Z,98846.91
2023-03-30T19:25:55.797Z,98856.38
2023-03-30T19:28:25.310Z,98853.84
2023-03-30T19:30:54.327Z,98848.59
2023-03-30T19:33:24.926Z,98838.19
2023-03-30T19:35:53.653Z,98830.41
2023-03-30T19:38:21.662Z,98837.38
2023-03-30T19:40:51.939Z,98846.12
2023-03-30T19:43:22.126Z,98853.03
2023-03-30T19:45:52.460Z,98855.59
2023-03-30T19:48:20.628Z,98862.50
2023-03-30T19:50:49.939Z,98861.59
2023-03-30T19:53:18.565Z,98860.72
2023-03-30T19:55:46.446Z,98861.66
2023-03-30T19:58:16.590Z,98861.56
2023-03-30T20:00:50.000Z,98861.69
2023-03-30T20:03:18.737Z,98846.91
2023-03-30T20:05:51.835Z,98850.41
2023-03-30T20:08:24.684Z,98857.47
2023-03-30T20:10:53.608Z,98854.72
2023-03-30T20:13:24.483Z,98848.66
2023-03-30T20:15:56.101Z,98849.44
2023-03-30T20:18:24.665Z,98840.75
2023-03-30T20:20:52.235Z,98838.19
2023-03-30T20:23:20.104Z,98845.13
2023-03-30T20:25:49.573Z,98846.88
2023-03-30T20:28:17.853Z,98839.94
2023-03-30T20:30:45.561Z,98839.03
2023-03-30T20:33:13.410Z,98832.06
2023-03-30T20:35:41.778Z,98831.09
2023-03-30T20:38:09.853Z,98836.56
2023-03-30T20:40:37.590Z,98835.69
2023-03-30T20:43:10.160Z,98824.38
2023-03-30T20:45:46.421Z,98827.97
2023-03-30T20:48:26.989Z,98822.84
2023-03-30T20:50:55.920Z,98813.25
2023-03-30T20:53:23.669Z,98818.38
2023-03-30T20:55:51.320Z,98810.50
2023-03-30T20:58:19.113Z,98818.31
2023-03-30T21:00:48.861Z,98815.75
2023-03-30T21:03:16.302Z,98806.91
2023-03-30T21:05:43.987Z,98807.06
2023-03-30T21:08:11.374Z,98805.31
2023-03-30T21:10:42.899Z,98800.97
2023-03-30T21:13:11.008Z,98793.09
2023-03-30T21:15:38.395Z,98782.84
2023-03-30T21:18:06.016Z,98788.03
2023-03-30T21:20:33.752Z,98802.91
2023-03-30T21:23:01.118Z,98782.97
2023-03-30T21:25:29.122Z,98774.19
2023-03-30T21:27:56.781Z,98766.37
2023-03-30T21:30:24.130Z,98759.50
2023-03-30T21:32:51.546Z,98753.44
2023-03-30T21:35:19.211Z,98744.63
2023-03-30T21:37:46.600Z,98738.63
2023-03-30T21:40:15.036Z,98741.25
2023-03-30T21:42:42.736Z,98776.78
2023-03-30T21:45:12.045Z,98789.84
2023-03-30T21:47:39.803Z,98802.84
2023-03-30T21:50:07.869Z,98793.31
2023-03-30T21:52:35.546Z,98805.34
2023-03-30T21:55:03.325Z,98809.09
2023-03-30T21:57:31.102Z,98812.53
2023-03-30T21:59:58.502Z,98805.50
2023-03-30T22:02:26.046Z,98816.00
2023-03-30T22:04:53.775Z,98822.09
2023-03-30T22:07:21.406Z,98816.91
2023-03-30T22:09:48.796Z,98812.59
2023-03-30T22:12:17.608Z,98813.44
2023-03-30T22:14:45.030Z,98809.97
2023-03-30T22:17:12.447Z,98815.16
2023-03-30T22:19:43.851Z,98825.56
2023-03-30T22:22:11.326Z,98812.56
2023-03-30T22:24:38.745Z,98821.22
2023-03-30T22:27:07.125Z,98822.09
2023-03-30T22:29:34.512Z,98820.34
2023-03-30T22:32:02.119Z,98809.97
2023-03-30T22:34:31.649Z,98817.69
2023-03-30T22:36:59.116Z,98814.22
2023-03-30T22:39:26.512Z,98807.22
2023-03-30T22:41:54.190Z,98815.94
2023-03-30T22:44:21.551Z,98815.12
2023-03-30T22:46:48.918Z,98816.03
2023-03-30T22:49:17.707Z,98813.41
2023-03-30T22:51:52.630Z,98803.81
2023-03-30T22:54:20.909Z,98790.78
2023-03-30T22:56:48.806Z,98789.91
2023-03-30T22:59:16.522Z,98776.81
2023-03-30T23:01:44.271Z,98780.28
2023-03-30T23:04:12.107Z,98793.38
2023-03-30T23:06:39.832Z,98789.00
2023-03-30T23:09:07.957Z,98792.31
2023-03-30T23:11:35.607Z,98788.03
2023-03-30T23:14:05.987Z,98792.47
2023-03-30T23:16:36.001Z,98795.91
2023-03-30T23:19:04.612Z,98787.25
2023-03-30T23:21:35.784Z,98780.34
2023-03-30T23:24:05.473Z,98784.72
2023-03-30T23:26:33.030Z,98787.38
2023-03-30T23:29:00.462Z,98789.91
2023-03-30T23:31:28.254Z,98791.78
2023-03-30T23:33:57.677Z,98783.94
2023-03-30T23:36:27.095Z,98772.66
2023-03-30T23:38:54.817Z,98780.47
2023-03-30T23:41:22.318Z,98789.97
2023-03-30T23:43:49.798Z,98795.13
2023-03-30T23:46:17.827Z,98797.75
2023-03-30T23:48:45.551Z,98787.28
2023-03-30T23:51:13.056Z,98785.59
2023-03-30T23:53:41.718Z,98775.13
2023-03-30T23:56:13.100Z,98778.66
2023-03-30T23:58:41.376Z,98784.75
